Time;durP1;ratioP1;P1;durP2;ratioP2;P2;SDS_P1;SDS_P2;PMS_P1;PMS_P2;Temp;Humidity;BMP_temperature;BMP_pressure;BME280_temperature;BME280_humidity;BME280_pressure;Samples;Min_cycle;Max_cycle;Signal;HPM_P1;HPM_P2
2021/04/25 00:00:52;;;;;;;1.27;0.60;;;11.50;93.40;;;;;;5096101;28;20876;-60
2021/04/25 00:03:19;;;;;;;1.60;0.60;;;11.60;93.60;;;;;;5095311;28;20418;-60
2021/04/25 00:05:45;;;;;;;1.50;0.70;;;11.60;93.60;;;;;;5094585;28;20470;-60
2021/04/25 00:08:11;;;;;;;1.20;0.70;;;11.60;93.80;;;;;;5095185;28;20453;-61
2021/04/25 00:10:38;;;;;;;1.35;0.70;;;11.50;94.00;;;;;;5096368;28;20743;-60
2021/04/25 00:13:04;;;;;;;1.35;0.70;;;11.40;94.70;;;;;;5096684;28;20457;-60
2021/04/25 00:15:31;;;;;;;1.75;0.70;;;11.40;95.20;;;;;;5096151;28;20425;-60
2021/04/25 00:17:58;;;;;;;1.50;0.70;;;11.40;95.60;;;;;;5094685;28;20430;-60
2021/04/25 00:20:25;;;;;;;1.08;0.63;;;11.40;95.80;;;;;;5095306;28;20472;-61
2021/04/25 00:22:51;;;;;;;1.63;0.70;;;11.40;96.00;;;;;;5096283;28;20829;-60
2021/04/25 00:25:18;;;;;;;1.50;0.70;;;11.40;96.20;;;;;;5096128;28;20472;-60
2021/04/25 00:27:45;;;;;;;1.13;0.80;;;11.30;96.90;;;;;;5094960;28;20414;-60
2021/04/25 00:30:15;;;;;;;1.70;0.80;;;11.30;97.00;;;;;;5096072;28;20457;-61
2021/04/25 00:32:42;;;;;;;1.38;0.70;;;11.20;97.30;;;;;;5094584;28;20449;-61
2021/04/25 00:35:11;;;;;;;3.37;0.70;;;11.20;97.70;;;;;;5094940;28;20932;-60
2021/04/25 00:37:37;;;;;;;1.30;0.60;;;11.10;97.50;;;;;;5094426;28;20524;-60
2021/04/25 00:40:06;;;;;;;1.50;0.80;;;11.10;98.00;;;;;;5095411;28;20454;-60
2021/04/25 00:42:33;;;;;;;2.00;0.70;;;11.10;98.10;;;;;;5095262;28;20417;-60
2021/04/25 00:45:01;;;;;;;1.20;0.70;;;11.20;98.10;;;;;;5095848;28;20456;-61
2021/04/25 00:47:27;;;;;;;1.30;0.60;;;11.10;98.20;;;;;;5095715;28;20468;-60
2021/04/25 00:49:54;;;;;;;1.00;0.60;;;11.10;98.50;;;;;;5095918;28;20821;-60
2021/04/25 00:52:22;;;;;;;1.60;0.80;;;11.10;98.50;;;;;;5095798;28;20425;-60
2021/04/25 00:54:48;;;;;;;1.60;0.70;;;11.00;99.10;;;;;;5095769;28;20755;-60
2021/04/25 00:57:16;;;;;;;1.33;0.70;;;11.00;99.30;;;;;;5095805;28;20524;-60
2021/04/25 00:59:43;;;;;;;1.90;0.70;;;11.10;99.30;;;;;;5095848;28;20498;-60
2021/04/25 01:02:10;;;;;;;1.42;0.70;;;11.00;99.70;;;;;;5094789;28;20453;-60
2021/04/25 01:04:37;;;;;;;1.50;0.60;;;10.90;99.90;;;;;;5093955;28;20441;-60
2021/04/25 01:07:04;;;;;;;1.70;0.70;;;11.00;99.90;;;;;;5092466;28;20433;-60
2021/04/25 01:09:32;;;;;;;1.30;0.70;;;10.90;99.90;;;;;;5093336;28;20516;-60
2021/04/25 01:11:59;;;;;;;1.40;0.70;;;10.90;99.90;;;;;;5093450;28;20495;-60
2021/04/25 01:14:25;;;;;;;1.20;0.70;;;10.90;99.90;;;;;;5093713;28;20465;-60
2021/04/25 01:16:52;;;;;;;1.10;0.70;;;10.90;99.90;;;;;;5093388;28;20479;-60
2021/04/25 01:19:18;;;;;;;1.15;0.60;;;10.80;99.90;;;;;;5092289;28;20465;-60
2021/04/25 01:21:45;;;;;;;1.10;0.70;;;10.70;99.90;;;;;;5092706;28;20418;-60
2021/04/25 01:24:12;;;;;;;1.85;0.70;;;10.70;99.90;;;;;;5092962;28;20465;-60
2021/04/25 01:26:39;;;;;;;2.63;0.70;;;10.60;99.90;;;;;;5093551;28;20546;-60
2021/04/25 01:29:05;;;;;;;1.30;0.75;;;10.50;99.90;;;;;;5093118;28;20848;-60
2021/04/25 01:31:32;;;;;;;1.60;0.70;;;10.50;99.90;;;;;;5094124;28;20445;-59
2021/04/25 01:33:58;;;;;;;1.60;0.60;;;10.40;99.90;;;;;;5094869;28;20782;-60
2021/04/25 01:36:25;;;;;;;1.40;0.70;;;10.40;99.90;;;;;;5094697;28;20507;-59
2021/04/25 01:38:53;;;;;;;1.20;0.70;;;10.30;99.90;;;;;;5094165;28;20437;-60
2021/04/25 01:41:19;;;;;;;1.53;0.70;;;10.40;99.90;;;;;;5094515;28;20441;-60
2021/04/25 01:43:47;;;;;;;1.30;0.70;;;10.50;99.90;;;;;;5095467;28;20516;-60
2021/04/25 01:46:14;;;;;;;2.42;0.80;;;10.50;99.90;;;;;;5094871;28;20434;-59
2021/04/25 01:48:41;;;;;;;1.50;0.80;;;10.50;99.90;;;;;;5094396;28;20812;-60
2021/04/25 01:51:08;;;;;;;1.35;0.70;;;10.50;99.90;;;;;;5094922;28;20496;-61
2021/04/25 01:53:34;;;;;;;1.20;0.70;;;10.40;99.90;;;;;;5094608;28;20436;-59
2021/04/25 01:56:03;;;;;;;1.80;0.70;;;10.30;99.90;;;;;;5094150;28;20460;-59
2021/04/25 01:58:29;;;;;;;1.70;0.70;;;10.30;99.90;;;;;;5094715;28;20434;-59
2021/04/25 02:00:57;;;;;;;1.40;0.70;;;10.40;99.90;;;;;;5094225;28;20453;-59
2021/04/25 02:03:25;;;;;;;1.70;0.70;;;10.40;99.90;;;;;;5094676;28;20417;-59
2021/04/25 02:05:52;;;;;;;1.67;0.75;;;10.40;99.90;;;;;;5094690;28;20479;-59
2021/04/25 02:08:19;;;;;;;4.05;0.70;;;10.30;99.90;;;;;;5094736;28;20450;-59
2021/04/25 02:10:46;;;;;;;1.67;0.80;;;10.20;99.90;;;;;;5094551;28;20417;-59
2021/04/25 02:13:13;;;;;;;1.60;0.80;;;10.20;99.90;;;;;;5094377;28;20589;-60
2021/04/25 02:15:40;;;;;;;1.00;0.70;;;10.10;99.90;;;;;;5094338;28;20851;-60
2021/04/25 02:18:07;;;;;;;1.10;0.70;;;10.00;99.90;;;;;;5095732;28;20520;-59
2021/04/25 02:20:34;;;;;;;1.20;0.80;;;10.00;99.90;;;;;;5098394;28;20472;-60
2021/04/25 02:23:01;;;;;;;1.75;0.90;;;9.90;99.90;;;;;;5098213;28;20409;-60
2021/04/25 02:25:28;;;;;;;2.23;0.80;;;9.90;99.90;;;;;;5098815;28;20888;-60
2021/04/25 02:27:56;;;;;;;1.50;0.70;;;9.90;99.90;;;;;;5097788;28;20424;-61
2021/04/25 02:30:26;;;;;;;1.77;0.80;;;9.90;99.90;;;;;;5098805;28;20433;-60
2021/04/25 02:32:53;;;;;;;1.42;0.77;;;9.90;99.90;;;;;;5098314;28;20421;-60
2021/04/25 02:35:21;;;;;;;1.50;0.70;;;9.90;99.90;;;;;;5098346;28;20796;-60
2021/04/25 02:37:49;;;;;;;1.20;0.70;;;9.90;99.90;;;;;;5098359;28;20785;-60
2021/04/25 02:40:18;;;;;;;1.67;0.80;;;9.90;99.90;;;;;;5098229;28;20432;-60
2021/04/25 02:42:44;;;;;;;1.10;0.80;;;9.90;99.90;;;;;;5096283;28;20492;-61
2021/04/25 02:45:15;;;;;;;2.20;0.73;;;9.90;99.90;;;;;;5095944;28;20425;-61
2021/04/25 02:47:45;;;;;;;1.95;0.80;;;10.00;99.90;;;;;;5095147;28;20422;-61
2021/04/25 02:50:12;;;;;;;1.50;0.87;;;9.90;99.90;;;;;;5095916;28;20425;-61
2021/04/25 02:52:38;;;;;;;1.40;0.70;;;10.00;99.90;;;;;;5096226;28;20457;-59
2021/04/25 02:55:07;;;;;;;1.43;0.80;;;9.90;99.90;;;;;;5096507;28;20868;-61
2021/04/25 02:57:33;;;;;;;1.40;0.80;;;9.70;99.90;;;;;;5097736;28;20486;-58
2021/04/25 02:59:59;;;;;;;1.40;0.90;;;9.50;99.90;;;;;;5097933;28;20476;-58
2021/04/25 03:02:26;;;;;;;1.73;0.80;;;9.50;99.90;;;;;;5097833;28;20805;-59
2021/04/25 03:04:54;;;;;;;2.05;0.80;;;9.50;99.90;;;;;;5098080;28;20491;-59
2021/04/25 03:07:21;;;;;;;2.03;0.80;;;9.60;99.90;;;;;;5097629;28;20772;-59
2021/04/25 03:09:47;;;;;;;1.83;0.80;;;9.60;99.90;;;;;;5097560;28;20430;-59
2021/04/25 03:12:14;;;;;;;2.10;0.80;;;9.60;99.90;;;;;;5097122;28;20482;-58
2021/04/25 03:14:40;;;;;;;1.40;0.80;;;9.60;99.90;;;;;;5096260;28;20519;-59
2021/04/25 03:17:07;;;;;;;1.80;0.90;;;9.50;99.90;;;;;;5095798;28;20837;-58
2021/04/25 03:19:33;;;;;;;1.80;0.80;;;9.60;99.90;;;;;;5096269;28;20732;-58
2021/04/25 03:22:01;;;;;;;3.00;0.85;;;9.50;99.90;;;;;;5096351;28;20460;-60
2021/04/25 03:24:27;;;;;;;1.50;0.70;;;9.40;99.90;;;;;;5097243;28;20469;-59
2021/04/25 03:26:53;;;;;;;1.60;0.90;;;9.40;99.90;;;;;;5096961;28;20683;-59
2021/04/25 03:29:20;;;;;;;1.40;0.80;;;9.50;99.90;;;;;;5095780;28;20570;-59
2021/04/25 03:31:46;;;;;;;1.80;0.80;;;9.50;99.90;;;;;;5097436;28;20465;-59
2021/04/25 03:34:13;;;;;;;1.60;0.80;;;9.50;99.90;;;;;;5097540;28;20514;-58
2021/04/25 03:36:39;;;;;;;1.60;0.80;;;9.30;99.90;;;;;;5096740;28;20514;-59
2021/04/25 03:39:07;;;;;;;2.60;0.73;;;9.10;99.90;;;;;;5095788;28;20872;-59
2021/04/25 03:41:34;;;;;;;2.20;0.93;;;8.90;99.90;;;;;;5096008;28;20449;-59
2021/04/25 03:44:01;;;;;;;2.03;0.80;;;8.90;99.90;;;;;;5095491;28;20904;-60
2021/04/25 03:46:27;;;;;;;1.38;0.80;;;9.00;99.90;;;;;;5094670;28;20790;-59
2021/04/25 03:48:53;;;;;;;2.40;0.90;;;9.00;99.90;;;;;;5095205;28;20422;-60
2021/04/25 03:51:20;;;;;;;1.70;0.80;;;9.10;99.90;;;;;;5094869;28;20421;-59
2021/04/25 03:53:46;;;;;;;1.60;0.70;;;9.00;99.90;;;;;;5094028;28;20457;-59
2021/04/25 03:56:13;;;;;;;4.13;0.80;;;9.00;99.90;;;;;;5093961;28;20453;-59
2021/04/25 03:58:40;;;;;;;1.10;0.70;;;8.80;99.90;;;;;;5092801;28;20676;-59
2021/04/25 04:01:07;;;;;;;1.98;0.80;;;8.80;99.90;;;;;;5092870;28;20460;-59
2021/04/25 04:03:33;;;;;;;1.80;0.88;;;9.00;99.90;;;;;;5093435;28;20429;-58
2021/04/25 04:06:00;;;;;;;2.20;0.80;;;9.00;99.90;;;;;;5093226;28;20481;-59
2021/04/25 04:08:26;;;;;;;1.20;0.70;;;8.80;99.90;;;;;;5093829;28;20415;-59
2021/04/25 04:10:52;;;;;;;1.90;0.90;;;8.80;99.90;;;;;;5095526;28;20414;-60
2021/04/25 04:13:20;;;;;;;1.27;0.77;;;8.80;99.90;;;;;;5096291;28;20468;-60
2021/04/25 04:15:46;;;;;;;1.30;0.85;;;8.90;99.90;;;;;;5096435;28;20470;-61
2021/04/25 04:18:12;;;;;;;1.90;1.00;;;8.90;99.90;;;;;;5096354;28;20465;-61
2021/04/25 04:20:39;;;;;;;2.22;0.82;;;8.70;99.90;;;;;;5096105;28;20449;-60
2021/04/25 04:23:05;;;;;;;2.40;0.80;;;8.60;99.90;;;;;;5095029;28;20450;-60
2021/04/25 04:25:32;;;;;;;1.50;0.80;;;8.60;99.90;;;;;;5094942;28;20449;-60
2021/04/25 04:27:58;;;;;;;2.50;0.77;;;8.50;99.90;;;;;;5095296;28;20450;-60
2021/04/25 04:30:26;;;;;;;1.33;0.70;;;8.50;99.90;;;;;;5095176;28;20468;-60
2021/04/25 04:32:53;;;;;;;2.17;0.80;;;8.50;99.90;;;;;;5094868;28;20475;-60
2021/04/25 04:35:20;;;;;;;2.28;0.70;;;8.60;99.90;;;;;;5094848;28;20465;-60
2021/04/25 04:37:46;;;;;;;1.42;0.80;;;8.40;99.90;;;;;;5096260;28;20517;-60
2021/04/25 04:40:14;;;;;;;1.30;0.80;;;8.30;99.90;;;;;;5095745;28;20468;-60
2021/04/25 04:42:41;;;;;;;1.60;0.77;;;8.20;99.90;;;;;;5096108;28;20446;-59
2021/04/25 04:45:08;;;;;;;1.60;0.88;;;8.30;99.90;;;;;;5095969;28;20468;-60
2021/04/25 04:47:35;;;;;;;1.50;0.80;;;8.40;99.90;;;;;;5095746;28;20468;-60
2021/04/25 04:50:02;;;;;;;1.30;0.80;;;8.60;99.90;;;;;;5096283;28;20453;-60
2021/04/25 04:52:29;;;;;;;2.50;0.80;;;8.70;99.90;;;;;;5095593;28;20418;-60
2021/04/25 04:54:57;;;;;;;1.40;0.80;;;8.80;99.90;;;;;;5095725;28;20516;-60
2021/04/25 04:57:23;;;;;;;1.60;0.90;;;8.80;99.90;;;;;;5095541;28;20444;-60
2021/04/25 04:59:50;;;;;;;1.27;0.80;;;8.80;99.90;;;;;;5095871;28;20439;-60
2021/04/25 05:02:16;;;;;;;3.08;0.82;;;8.80;99.90;;;;;;5095410;28;20702;-61
2021/04/25 05:04:44;;;;;;;2.60;0.80;;;8.50;99.90;;;;;;5094631;28;20469;-60
2021/04/25 05:07:11;;;;;;;2.00;0.90;;;8.40;99.90;;;;;;5094231;28;20753;-58
2021/04/25 05:09:37;;;;;;;2.20;0.90;;;8.40;99.90;;;;;;5093521;28;20433;-59
2021/04/25 05:12:05;;;;;;;2.50;0.98;;;8.40;99.90;;;;;;5093451;28;20806;-59
2021/04/25 05:14:31;;;;;;;2.00;0.88;;;8.40;99.90;;;;;;5094155;28;20430;-59
2021/04/25 05:16:58;;;;;;;2.40;0.90;;;8.50;99.90;;;;;;5092942;28;20445;-59
2021/04/25 05:19:24;;;;;;;2.20;1.20;;;8.50;99.90;;;;;;5092978;28;20438;-59
2021/04/25 05:21:51;;;;;;;3.00;0.90;;;8.60;99.90;;;;;;5092771;28;20518;-59
2021/04/25 05:24:18;;;;;;;2.30;0.90;;;8.60;99.90;;;;;;5092876;28;20512;-59
2021/04/25 05:26:44;;;;;;;1.50;0.80;;;8.60;99.90;;;;;;5092573;28;20425;-60
2021/04/25 05:29:10;;;;;;;2.30;1.00;;;8.50;99.90;;;;;;5092606;28;20765;-60
2021/04/25 05:31:38;;;;;;;2.17;0.90;;;8.40;99.90;;;;;;5093212;28;20414;-60
2021/04/25 05:34:04;;;;;;;1.90;0.90;;;8.40;99.90;;;;;;5093706;28;20535;-59
2021/04/25 05:36:31;;;;;;;1.60;1.00;;;8.40;99.90;;;;;;5094446;28;20713;-60
2021/04/25 05:38:58;;;;;;;1.83;0.90;;;8.50;99.90;;;;;;5094607;28;20441;-59
2021/04/25 05:41:24;;;;;;;1.58;0.90;;;8.70;99.90;;;;;;5094695;28;20418;-59
2021/04/25 05:43:51;;;;;;;3.50;1.20;;;8.80;99.90;;;;;;5094606;28;20457;-59
2021/04/25 05:46:17;;;;;;;1.80;0.90;;;8.80;99.90;;;;;;5094548;28;20428;-59
2021/04/25 05:48:44;;;;;;;2.38;0.90;;;8.80;99.90;;;;;;5094535;28;20857;-59
2021/04/25 05:51:11;;;;;;;2.80;0.90;;;8.90;99.90;;;;;;5094512;28;20438;-59
2021/04/25 05:53:38;;;;;;;2.50;1.00;;;8.90;99.90;;;;;;5094349;28;20866;-59
2021/04/25 05:56:06;;;;;;;2.10;1.00;;;9.00;99.90;;;;;;5094476;28;20428;-59
2021/04/25 05:58:33;;;;;;;2.30;0.90;;;9.00;99.90;;;;;;5094521;28;20425;-60
2021/04/25 06:00:59;;;;;;;2.45;1.05;;;9.00;99.90;;;;;;5094418;28;20532;-59
2021/04/25 06:03:25;;;;;;;1.92;1.08;;;9.00;99.90;;;;;;5094500;28;20577;-60
2021/04/25 06:05:52;;;;;;;2.03;1.13;;;9.00;99.90;;;;;;5093998;28;20417;-59
2021/04/25 06:08:18;;;;;;;2.30;1.10;;;9.00;99.90;;;;;;5093349;28;20459;-59
2021/04/25 06:10:45;;;;;;;3.40;1.10;;;9.10;99.90;;;;;;5093810;28;20422;-59
2021/04/25 06:13:12;;;;;;;2.30;1.20;;;9.10;99.90;;;;;;5093221;28;20465;-59
2021/04/25 06:15:39;;;;;;;2.20;1.10;;;9.00;99.90;;;;;;5094370;28;20418;-59
2021/04/25 06:18:05;;;;;;;1.60;1.10;;;9.00;99.90;;;;;;5093911;28;20563;-61
2021/04/25 06:20:32;;;;;;;1.73;1.05;;;8.90;99.90;;;;;;5084414;28;20471;-61
2021/04/25 06:22:58;;;;;;;2.40;1.00;;;8.80;99.90;;;;;;5074992;28;20452;-60
2021/04/25 06:25:25;;;;;;;3.65;1.30;;;8.80;99.90;;;;;;5079925;28;20744;-60
2021/04/25 06:27:52;;;;;;;2.60;1.15;;;8.90;99.90;;;;;;5081899;28;20424;-60
2021/04/25 06:30:20;;;;;;;2.20;1.27;;;8.90;99.90;;;;;;5083196;28;20463;-60
2021/04/25 06:32:47;;;;;;;2.42;1.20;;;8.90;99.90;;;;;;5088122;28;20466;-61
2021/04/25 06:35:15;;;;;;;2.80;1.20;;;9.00;99.90;;;;;;5089050;28;20431;-60
2021/04/25 06:37:44;;;;;;;3.63;1.60;;;9.20;99.90;;;;;;5076125;28;20446;-60
2021/04/25 06:40:12;;;;;;;2.20;1.23;;;9.20;99.90;;;;;;5077342;28;20436;-61
2021/04/25 06:42:39;;;;;;;3.10;1.40;;;9.10;99.90;;;;;;5092496;28;20421;-60
2021/04/25 06:45:08;;;;;;;3.65;1.50;;;9.20;99.90;;;;;;5090010;28;20520;-60
2021/04/25 06:47:35;;;;;;;2.85;1.20;;;9.40;99.90;;;;;;5089923;28;20480;-59
2021/04/25 06:50:02;;;;;;;2.53;1.60;;;9.40;99.90;;;;;;5091313;28;20524;-59
2021/04/25 06:52:36;;;;;;;2.50;1.30;;;9.20;99.90;;;;;;5084848;28;20478;-60
2021/04/25 06:55:14;;;;;;;3.10;1.30;;;9.10;99.90;;;;;;5088750;28;20473;-62
2021/04/25 06:57:47;;;;;;;3.22;1.60;;;9.00;99.90;;;;;;5086311;28;20448;-60
2021/04/25 07:00:17;;;;;;;3.15;1.70;;;9.00;99.90;;;;;;5084285;28;20435;-60
2021/04/25 07:02:44;;;;;;;3.38;1.60;;;9.10;99.90;;;;;;5092952;28;20791;-60
2021/04/25 07:05:11;;;;;;;4.40;1.70;;;9.20;99.90;;;;;;5091988;28;20458;-60
2021/04/25 07:07:37;;;;;;;3.60;1.60;;;9.40;99.90;;;;;;5093792;28;20422;-60
2021/04/25 07:10:09;;;;;;;4.15;1.50;;;9.50;99.90;;;;;;5078000;28;20430;-60
2021/04/25 07:12:36;;;;;;;3.85;1.60;;;9.60;99.90;;;;;;5081012;28;20522;-60
2021/04/25 07:15:03;;;;;;;3.30;1.58;;;9.70;99.90;;;;;;5086707;28;20467;-60
2021/04/25 07:17:30;;;;;;;5.50;2.10;;;9.80;99.90;;;;;;5086984;28;20450;-60
2021/04/25 07:19:57;;;;;;;2.90;1.50;;;10.00;99.90;;;;;;5096071;28;20458;-60
2021/04/25 07:22:23;;;;;;;4.32;1.80;;;10.20;99.90;;;;;;5090569;28;20778;-61
2021/04/25 07:24:50;;;;;;;2.97;1.90;;;10.30;99.90;;;;;;5095000;28;20473;-59
2021/04/25 07:27:17;;;;;;;3.70;1.70;;;10.30;99.90;;;;;;5086072;28;20423;-60
2021/04/25 07:29:44;;;;;;;3.95;2.50;;;10.50;99.90;;;;;;5080907;28;20460;-59
2021/04/25 07:32:10;;;;;;;4.10;1.90;;;10.40;99.90;;;;;;5087501;28;20452;-59
2021/04/25 07:34:37;;;;;;;3.42;1.90;;;10.40;99.90;;;;;;5085338;28;20616;-60
2021/04/25 07:37:05;;;;;;;2.83;1.70;;;10.50;99.90;;;;;;5082450;28;20514;-60
2021/04/25 07:39:32;;;;;;;3.00;1.85;;;10.60;99.90;;;;;;5075541;28;20431;-60
2021/04/25 07:41:59;;;;;;;4.03;1.80;;;10.80;99.90;;;;;;5083741;28;21070;-60
2021/04/25 07:44:25;;;;;;;4.40;2.50;;;10.90;99.90;;;;;;5075954;28;20432;-60
2021/04/25 07:46:52;;;;;;;4.43;2.08;;;11.10;99.90;;;;;;5094245;28;20452;-60
2021/04/25 07:49:19;;;;;;;3.00;2.03;;;11.10;99.90;;;;;;5084460;28;20466;-60
2021/04/25 07:51:45;;;;;;;4.97;2.67;;;11.30;99.90;;;;;;5077309;28;20467;-60
2021/04/25 07:54:13;;;;;;;6.78;2.53;;;11.20;99.90;;;;;;5075821;28;20435;-60
2021/04/25 07:56:39;;;;;;;4.75;2.10;;;11.30;99.90;;;;;;5085787;28;20430;-60
2021/04/25 07:59:05;;;;;;;7.00;2.60;;;11.50;99.90;;;;;;5094656;28;20476;-61
2021/04/25 08:04:27;;;;;;;3.20;2.10;;;11.60;99.90;;;;;;5094057;28;20520;-59
2021/04/25 08:06:58;;;;;;;6.43;3.38;;;11.40;99.90;;;;;;5094750;28;20849;-61
2021/04/25 08:09:26;;;;;;;3.53;2.20;;;11.40;99.90;;;;;;5078220;28;20538;-59
2021/04/25 08:11:54;;;;;;;4.63;2.33;;;11.50;99.90;;;;;;5077179;28;20865;-59
2021/04/25 08:14:21;;;;;;;4.03;2.70;;;11.60;99.90;;;;;;5078463;28;20506;-60
2021/04/25 08:16:47;;;;;;;4.30;3.10;;;11.50;99.90;;;;;;5079678;28;20529;-60
2021/04/25 08:19:14;;;;;;;4.90;2.60;;;11.70;99.90;;;;;;5088248;28;20812;-59
2021/04/25 08:21:41;;;;;;;5.63;3.38;;;11.90;99.90;;;;;;5077088;28;20520;-60
2021/04/25 08:24:08;;;;;;;15.98;4.60;;;12.00;99.90;;;;;;5078850;28;20873;-59
2021/04/25 08:26:35;;;;;;;17.38;5.20;;;12.20;99.90;;;;;;5080066;28;20430;-59
2021/04/25 08:29:02;;;;;;;5.28;3.30;;;12.50;99.90;;;;;;5089422;28;20449;-59
2021/04/25 08:31:29;;;;;;;73.13;12.00;;;12.60;99.90;;;;;;5091030;28;20441;-59
2021/04/25 08:33:55;;;;;;;6.25;3.33;;;12.60;99.90;;;;;;5089126;28;20460;-60
2021/04/25 08:36:22;;;;;;;4.45;3.10;;;12.70;99.90;;;;;;5082727;28;20929;-61
2021/04/25 08:38:48;;;;;;;5.07;3.17;;;12.80;99.90;;;;;;5091665;28;20432;-60
2021/04/25 08:41:16;;;;;;;4.68;3.15;;;12.80;99.90;;;;;;5077751;28;20465;-60
2021/04/25 08:43:44;;;;;;;4.20;2.70;;;12.70;99.90;;;;;;5087396;28;20741;-60
2021/04/25 08:46:15;;;;;;;4.82;2.88;;;12.80;99.90;;;;;;5075590;28;20961;-60
2021/04/25 08:48:45;;;;;;;7.07;3.63;;;12.90;99.90;;;;;;5074068;28;20537;-60
2021/04/25 08:51:12;;;;;;;4.60;2.70;;;13.10;99.90;;;;;;5092897;28;20782;-60
2021/04/25 08:53:40;;;;;;;5.93;3.88;;;13.10;99.90;;;;;;5093807;28;20432;-60
2021/04/25 08:56:06;;;;;;;3.10;2.20;;;13.20;99.90;;;;;;5090406;28;20451;-60
2021/04/25 08:58:34;;;;;;;4.53;2.53;;;13.10;99.90;;;;;;5093875;28;20481;-60
2021/04/25 09:01:01;;;;;;;4.65;2.58;;;13.20;99.90;;;;;;5094531;28;20818;-60
2021/04/25 09:03:28;;;;;;;3.45;2.45;;;13.10;99.90;;;;;;5080756;28;20646;-60
2021/04/25 09:05:58;;;;;;;4.90;2.77;;;13.30;99.90;;;;;;5073459;28;20423;-60
2021/04/25 09:08:51;;;;;;;6.25;3.08;;;13.40;99.90;;;;;;5072919;28;20427;-60
2021/04/25 09:11:26;;;;;;;3.58;2.40;;;13.50;99.90;;;;;;5074419;28;20866;-61
2021/04/25 09:14:14;;;;;;;4.18;3.25;;;13.50;99.90;;;;;;5074004;28;20735;-61
2021/04/25 09:16:44;;;;;;;3.58;2.30;;;13.60;99.90;;;;;;5077223;28;20425;-60
2021/04/25 09:19:25;;;;;;;3.70;2.10;;;13.60;99.90;;;;;;5088613;28;20436;-60
2021/04/25 09:21:54;;;;;;;6.22;3.28;;;13.60;99.90;;;;;;5086907;28;20453;-61
2021/04/25 09:24:30;;;;;;;5.22;2.50;;;13.50;99.90;;;;;;5090569;28;20912;-60
2021/04/25 09:26:58;;;;;;;5.03;2.78;;;13.40;99.90;;;;;;5092940;28;20426;-60
2021/04/25 09:29:26;;;;;;;4.68;2.05;;;13.60;99.90;;;;;;5090681;28;20431;-60
2021/04/25 09:31:59;;;;;;;4.13;2.45;;;13.70;99.90;;;;;;5081566;28;20426;-60
2021/04/25 09:34:32;;;;;;;4.22;2.25;;;13.90;99.90;;;;;;5080599;28;20435;-61
2021/04/25 09:37:17;;;;;;;3.75;2.40;;;13.70;99.90;;;;;;5080924;28;20883;-61
2021/04/25 09:40:03;;;;;;;5.38;2.58;;;13.80;99.90;;;;;;5089022;28;20465;-61
2021/04/25 09:42:31;;;;;;;3.85;1.70;;;14.00;99.90;;;;;;5071261;28;20435;-60
2021/04/25 09:44:58;;;;;;;3.77;1.40;;;14.20;99.90;;;;;;5083425;28;20760;-60
2021/04/25 09:47:32;;;;;;;3.43;1.50;;;14.20;99.90;;;;;;5077336;28;21315;-60
2021/04/25 09:50:00;;;;;;;3.10;1.90;;;14.00;99.90;;;;;;5070597;28;20419;-60
2021/04/25 09:52:36;;;;;;;4.30;1.60;;;14.00;99.90;;;;;;5092021;28;20436;-62
2021/04/25 09:55:27;;;;;;;3.30;1.60;;;13.90;99.90;;;;;;5079265;28;20830;-55
2021/04/25 09:57:55;;;;;;;2.40;1.50;;;13.80;99.90;;;;;;5078272;28;20437;-53
2021/04/25 10:00:39;;;;;;;2.17;1.37;;;14.00;99.90;;;;;;5073964;28;20481;-56
2021/04/25 10:03:09;;;;;;;3.20;1.20;;;14.40;99.90;;;;;;5072519;28;20436;-54
2021/04/25 10:05:36;;;;;;;2.47;1.40;;;14.90;99.90;;;;;;5091524;28;20433;-54
2021/04/25 10:08:03;;;;;;;3.58;1.20;;;15.50;99.40;;;;;;5093614;28;20422;-54
2021/04/25 10:10:31;;;;;;;2.38;1.38;;;15.90;98.70;;;;;;5091339;28;20426;-55
2021/04/25 10:12:57;;;;;;;4.30;1.40;;;16.20;98.60;;;;;;5079950;28;20463;-54
2021/04/25 10:15:24;;;;;;;2.20;1.40;;;16.30;98.30;;;;;;5089146;28;20775;-56
2021/04/25 10:17:54;;;;;;;2.50;1.45;;;16.30;97.30;;;;;;5087151;28;20527;-57
2021/04/25 10:20:23;;;;;;;2.70;1.30;;;16.20;96.20;;;;;;5092779;28;20817;-56
2021/04/25 10:22:51;;;;;;;2.60;1.20;;;15.90;96.80;;;;;;5081609;28;20459;-56
2021/04/25 10:25:19;;;;;;;2.60;1.20;;;15.60;95.10;;;;;;5070654;28;20411;-55
2021/04/25 10:27:56;;;;;;;2.58;1.38;;;15.80;95.30;;;;;;5079596;28;20503;-57
2021/04/25 10:30:29;;;;;;;2.75;1.20;;;16.20;94.20;;;;;;5084528;28;20812;-56
2021/04/25 10:32:58;;;;;;;1.88;1.13;;;16.30;93.80;;;;;;5071796;28;20423;-57
2021/04/25 10:35:28;;;;;;;3.70;1.30;;;16.40;93.00;;;;;;5077437;28;20438;-57
2021/04/25 10:37:56;;;;;;;3.10;1.40;;;16.90;90.90;;;;;;5092449;28;20487;-58
2021/04/25 10:40:30;;;;;;;3.38;1.40;;;17.00;90.40;;;;;;5088108;28;20419;-58
2021/04/25 10:43:08;;;;;;;2.10;1.30;;;17.30;91.20;;;;;;5088759;28;20896;-56
2021/04/25 10:45:53;;;;;;;3.13;1.50;;;17.60;91.10;;;;;;5095788;28;20428;-57
2021/04/25 10:48:26;;;;;;;2.67;1.20;;;17.80;90.10;;;;;;5096416;28;20429;-58
2021/04/25 10:50:55;;;;;;;2.35;1.30;;;17.80;84.70;;;;;;5090970;28;20424;-58
2021/04/25 10:53:36;;;;;;;2.80;1.30;;;17.60;84.50;;;;;;5093618;28;20460;-58
2021/04/25 10:56:33;;;;;;;2.20;1.40;;;17.50;85.80;;;;;;5095136;28;20422;-58
2021/04/25 10:59:33;;;;;;;3.85;1.40;;;17.60;85.60;;;;;;5089036;28;20805;-58
2021/04/25 11:02:01;;;;;;;1.65;1.10;;;18.00;85.00;;;;;;5091104;28;20421;-58
2021/04/25 11:05:11;;;;;;;1.40;1.10;;;18.10;83.80;;;;;;5092769;28;20479;-58
2021/04/25 11:07:47;;;;;;;2.33;1.20;;;18.00;82.00;;;;;;5093535;28;20524;-55
2021/04/25 11:10:23;;;;;;;3.60;1.10;;;18.60;82.50;;;;;;5092494;28;20426;-57
2021/04/25 11:12:50;;;;;;;2.92;1.30;;;18.90;80.10;;;;;;5082737;28;20439;-57
2021/04/25 11:15:48;;;;;;;2.42;1.30;;;18.90;79.40;;;;;;5089998;28;20879;-57
2021/04/25 11:18:44;;;;;;;1.90;1.40;;;18.80;78.30;;;;;;5091231;28;20638;-57
2021/04/25 11:21:48;;;;;;;1.63;1.20;;;18.90;76.60;;;;;;5086268;28;20509;-56
2021/04/25 11:24:27;;;;;;;2.20;1.00;;;18.60;76.50;;;;;;5084102;28;20433;-57
2021/04/25 11:26:56;;;;;;;1.50;0.90;;;18.90;73.70;;;;;;5086028;28;20434;-58
2021/04/25 11:29:43;;;;;;;1.67;0.90;;;18.50;71.70;;;;;;5083010;28;20841;-58
2021/04/25 11:32:24;;;;;;;1.70;1.00;;;19.00;69.40;;;;;;5087727;28;20433;-58
2021/04/25 11:35:13;;;;;;;1.60;0.90;;;19.00;69.40;;;;;;5080855;28;20479;-58
2021/04/25 11:37:44;;;;;;;1.40;1.00;;;19.50;67.70;;;;;;5083339;28;20899;-58
2021/04/25 11:40:20;;;;;;;2.40;0.95;;;19.30;63.10;;;;;;5086741;28;20410;-58
2021/04/25 11:42:48;;;;;;;3.20;0.93;;;18.40;65.90;;;;;;5089355;28;20436;-58
2021/04/25 11:45:20;;;;;;;2.40;1.00;;;18.60;67.30;;;;;;5090367;28;20426;-57
2021/04/25 11:47:47;;;;;;;1.58;0.90;;;18.90;65.50;;;;;;5086897;28;20461;-58
2021/04/25 11:50:16;;;;;;;1.20;0.82;;;19.50;65.30;;;;;;5084318;28;20432;-58
2021/04/25 11:52:44;;;;;;;1.93;1.10;;;20.10;62.30;;;;;;5084099;28;20435;-58
2021/04/25 11:55:13;;;;;;;2.13;0.88;;;20.10;59.30;;;;;;5087936;28;20465;-57
2021/04/25 11:57:41;;;;;;;1.00;0.70;;;19.80;59.50;;;;;;5090687;28;20458;-57
2021/04/25 12:00:09;;;;;;;1.10;0.80;;;20.00;58.00;;;;;;5092037;28;20486;-56
2021/04/25 12:02:38;;;;;;;1.30;0.77;;;19.90;58.00;;;;;;5090623;28;20439;-57
2021/04/25 12:05:07;;;;;;;1.10;0.77;;;19.80;56.30;;;;;;5088056;28;20438;-56
2021/04/25 12:07:42;;;;;;;2.45;0.90;;;19.90;56.00;;;;;;5090764;28;20429;-57
2021/04/25 12:10:16;;;;;;;2.10;0.90;;;19.80;55.20;;;;;;5093715;28;20435;-58
2021/04/25 12:13:08;;;;;;;2.05;0.80;;;19.50;54.10;;;;;;5093229;28;20731;-57
2021/04/25 12:15:47;;;;;;;1.60;0.80;;;19.30;55.30;;;;;;5094140;28;20688;-58
2021/04/25 12:18:15;;;;;;;1.47;0.70;;;19.70;54.30;;;;;;5092772;28;20430;-58
2021/04/25 12:20:44;;;;;;;1.70;0.70;;;19.90;52.80;;;;;;5091622;28;20422;-58
2021/04/25 12:23:16;;;;;;;1.40;0.60;;;20.30;51.70;;;;;;5093812;28;20860;-58
2021/04/25 12:25:44;;;;;;;1.40;0.80;;;20.40;51.60;;;;;;5094364;28;20454;-57
2021/04/25 12:28:11;;;;;;;1.00;0.70;;;20.30;51.70;;;;;;5092787;28;20482;-58
2021/04/25 12:30:38;;;;;;;1.30;0.70;;;19.90;50.70;;;;;;5094824;28;20736;-58
2021/04/25 12:33:10;;;;;;;1.10;0.70;;;20.20;52.80;;;;;;5094196;28;20430;-58
2021/04/25 12:35:38;;;;;;;0.93;0.60;;;20.40;52.60;;;;;;5092994;28;20838;-58
2021/04/25 12:38:23;;;;;;;1.20;0.90;;;20.60;52.70;;;;;;5094110;28;20434;-58
2021/04/25 12:41:01;;;;;;;1.00;0.70;;;20.30;51.20;;;;;;5094706;28;20426;-56
2021/04/25 12:43:29;;;;;;;1.73;0.65;;;20.20;49.60;;;;;;5094527;28;20798;-57
2021/04/25 12:45:57;;;;;;;0.90;0.60;;;20.20;50.20;;;;;;5093020;28;20430;-58
2021/04/25 12:48:30;;;;;;;2.60;0.63;;;20.90;49.40;;;;;;5093387;28;20433;-58
2021/04/25 12:51:20;;;;;;;0.90;0.60;;;20.30;47.70;;;;;;5093670;28;20422;-57
2021/04/25 12:54:05;;;;;;;1.00;0.60;;;20.00;47.10;;;;;;5093633;28;20430;-58
2021/04/25 12:56:35;;;;;;;1.40;0.60;;;19.90;47.20;;;;;;5090618;28;20897;-57
2021/04/25 12:59:13;;;;;;;1.27;0.70;;;20.40;48.80;;;;;;5092523;28;20434;-58
2021/04/25 13:01:42;;;;;;;1.30;0.60;;;20.50;47.30;;;;;;5092346;28;20422;-58
2021/04/25 13:04:30;;;;;;;1.10;0.60;;;20.70;47.10;;;;;;5092187;28;20579;-58